createdAt,value
2023-04-18T00:02:07.372Z,7.88
2023-04-18T00:06:59.072Z,8.50
2023-04-18T00:11:51.262Z,8.65
2023-04-18T00:16:43.358Z,8.40
2023-04-18T00:21:36.113Z,8.55
2023-04-18T00:26:28.214Z,7.68
2023-04-18T00:31:19.805Z,8.57
2023-04-18T00:36:11.439Z,8.25
2023-04-18T00:41:03.220Z,7.88
2023-04-18T00:45:57.138Z,6.65
2023-04-18T00:50:48.971Z,6.53
2023-04-18T00:55:40.721Z,7.25
2023-04-18T01:00:32.335Z,5.28
2023-04-18T01:05:24.164Z,5.00
2023-04-18T01:10:15.950Z,4.70
2023-04-18T01:15:08.115Z,4.90
2023-04-18T01:20:01.852Z,5.15
2023-04-18T01:24:53.416Z,5.88
2023-04-18T01:29:45.648Z,5.72
2023-04-18T01:34:37.377Z,5.40
2023-04-18T01:39:28.938Z,5.88
2023-04-18T01:44:20.535Z,5.82
2023-04-18T01:49:12.235Z,6.85
2023-04-18T01:54:03.933Z,7.43
2023-04-18T01:58:56.178Z,7.10
2023-04-18T02:03:47.983Z,9.38
2023-04-18T02:08:39.761Z,8.95
2023-04-18T02:13:31.446Z,7.97
2023-04-18T02:18:24.873Z,9.27
2023-04-18T02:23:16.443Z,9.55
2023-04-18T02:28:08.140Z,9.52
2023-04-18T02:32:59.773Z,9.73
2023-04-18T02:37:51.521Z,10.15
2023-04-18T02:42:43.178Z,8.65
2023-04-18T02:47:46.929Z,10.63
2023-04-18T02:52:43.982Z,10.02
2023-04-18T02:57:35.535Z,10.60
2023-04-18T03:02:27.178Z,9.02
2023-04-18T03:07:18.844Z,10.40
2023-04-18T03:12:10.417Z,9.52
2023-04-18T03:17:02.312Z,9.95
2023-04-18T03:21:53.949Z,10.68
2023-04-18T03:26:46.094Z,10.73
2023-04-18T03:31:37.719Z,11.00
2023-04-18T03:36:29.976Z,11.00
2023-04-18T03:41:21.705Z,11.38
2023-04-18T03:46:13.252Z,11.95
2023-04-18T03:51:06.062Z,12.43
2023-04-18T03:55:58.045Z,11.15
2023-04-18T04:00:51.864Z,12.77
2023-04-18T04:05:43.703Z,12.48
2023-04-18T04:10:36.005Z,12.40
2023-04-18T04:15:27.614Z,12.60
2023-04-18T04:20:24.834Z,12.35
2023-04-18T04:25:17.471Z,13.70
2023-04-18T04:30:11.980Z,12.88
2023-04-18T04:35:05.901Z,12.95
2023-04-18T04:39:57.498Z,11.98
2023-04-18T04:44:49.140Z,13.32
2023-04-18T04:49:40.783Z,12.32
2023-04-18T04:54:32.342Z,13.35
2023-04-18T04:59:24.080Z,14.05
2023-04-18T05:04:16.008Z,14.52
2023-04-18T05:09:07.924Z,16.60
2023-04-18T05:13:59.701Z,16.55
2023-04-18T05:18:51.251Z,16.40
2023-04-18T05:23:42.885Z,16.35
2023-04-18T05:28:34.532Z,15.10
2023-04-18T05:33:26.203Z,16.85
2023-04-18T05:38:17.736Z,15.07
2023-04-18T05:43:09.267Z,14.57
2023-04-18T05:48:01.094Z,17.23
2023-04-18T05:52:52.765Z,15.70
2023-04-18T05:57:44.346Z,15.68
2023-04-18T06:02:36.048Z,19.30
2023-04-18T06:07:27.820Z,20.08
2023-04-18T06:12:19.629Z,23.08
2023-04-18T06:17:12.956Z,23.17
2023-04-18T06:22:04.528Z,24.98
2023-04-18T06:26:57.401Z,22.40
2023-04-18T06:31:50.679Z,20.65
2023-04-18T06:36:42.770Z,21.90
2023-04-18T06:41:34.527Z,23.63
2023-04-18T06:46:26.236Z,22.60
2023-04-18T06:51:17.916Z,21.10
2023-04-18T06:56:09.464Z,21.52
2023-04-18T07:01:01.038Z,20.92
2023-04-18T07:05:52.666Z,18.75
2023-04-18T07:10:44.310Z,19.10
2023-04-18T07:15:36.227Z,17.08
2023-04-18T07:20:27.961Z,16.58
2023-04-18T07:25:19.787Z,17.73
2023-04-18T07:30:11.960Z,17.48
2023-04-18T07:35:04.226Z,14.63
2023-04-18T07:39:55.783Z,15.40
2023-04-18T07:44:47.938Z,13.50
2023-04-18T07:49:39.497Z,13.40
2023-04-18T07:54:31.136Z,12.75
2023-04-18T07:59:22.735Z,13.30
2023-04-18T08:04:15.193Z,13.75
2023-04-18T08:09:06.923Z,13.38
2023-04-18T08:13:58.577Z,12.90
2023-04-18T08:18:50.271Z,13.30
2023-04-18T08:23:41.845Z,15.38
2023-04-18T08:28:33.443Z,16.33
2023-04-18T08:33:25.114Z,16.92
2023-04-18T08:38:18.154Z,17.20
2023-04-18T08:43:14.189Z,16.17
2023-04-18T08:48:06.333Z,16.63
2023-04-18T08:52:59.320Z,16.35
2023-04-18T08:57:54.197Z,17.17
2023-04-18T09:02:47.166Z,17.40
2023-04-18T09:07:38.957Z,16.90
2023-04-18T09:12:32.780Z,16.17
2023-04-18T09:17:31.870Z,16.38
2023-04-18T09:22:23.578Z,16.70
2023-04-18T09:27:15.179Z,16.17
2023-04-18T09:32:07.137Z,15.00
2023-04-18T09:37:10.071Z,15.77
2023-04-18T09:42:02.488Z,14.55
2023-04-18T09:46:54.159Z,14.20
2023-04-18T09:51:46.333Z,11.93
2023-04-18T09:56:42.831Z,12.02
2023-04-18T10:01:34.888Z,10.13
2023-04-18T10:06:28.647Z,9.70
2023-04-18T10:11:20.561Z,9.98
2023-04-18T10:16:12.921Z,8.75
2023-04-18T10:21:05.114Z,9.18
2023-04-18T10:25:56.918Z,8.07
2023-04-18T10:30:50.200Z,7.85
2023-04-18T10:35:56.783Z,7.97
2023-04-18T10:40:48.330Z,7.88
2023-04-18T10:45:40.019Z,8.38
2023-04-18T10:50:31.596Z,6.60
2023-04-18T10:55:29.212Z,6.90
2023-04-18T11:00:23.510Z,7.00
2023-04-18T11:05:19.925Z,6.75
2023-04-18T11:10:13.007Z,6.45
2023-04-18T11:15:11.928Z,7.05
2023-04-18T11:20:12.760Z,8.05
2023-04-18T11:25:08.546Z,9.18
2023-04-18T11:30:00.225Z,7.95
2023-04-18T11:34:55.522Z,8.25
2023-04-18T11:39:47.273Z,10.70
2023-04-18T11:44:40.102Z,8.85
2023-04-18T11:49:32.994Z,8.57
2023-04-18T11:54:42.151Z,7.53
2023-04-18T11:59:33.962Z,8.48
2023-04-18T12:04:25.765Z,7.38
2023-04-18T12:09:18.850Z,7.22
2023-04-18T12:14:22.985Z,7.47
2023-04-18T12:19:14.677Z,8.35
2023-04-18T12:24:16.003Z,7.88
2023-04-18T12:29:07.834Z,7.80
2023-04-18T12:34:00.176Z,7.65
2023-04-18T12:38:52.031Z,6.18
2023-04-18T12:43:43.587Z,7.38
2023-04-18T12:48:35.212Z,9.13
2023-04-18T12:53:26.804Z,5.82
2023-04-18T12:58:18.891Z,5.93
2023-04-18T13:03:12.959Z,4.60
2023-04-18T13:08:16.077Z,4.43
2023-04-18T13:13:09.108Z,5.50
2023-04-18T13:18:05.110Z,6.15
2023-04-18T13:22:56.759Z,4.20
2023-04-18T13:27:50.177Z,3.75
2023-04-18T13:32:43.901Z,2.53
2023-04-18T13:37:36.156Z,2.33
2023-04-18T13:42:27.781Z,2.42
2023-04-18T13:47:19.465Z,2.70
2023-04-18T13:52:11.129Z,2.33
2023-04-18T13:57:03.574Z,2.65
2023-04-18T14:01:55.869Z,2.30
2023-04-18T14:06:48.861Z,2.03
2023-04-18T14:11:40.835Z,2.50
2023-04-18T14:16:33.495Z,1.90
2023-04-18T14:21:26.229Z,2.17
2023-04-18T14:26:18.620Z,2.70
2023-04-18T14:31:10.499Z,2.63
2023-04-18T14:36:02.967Z,2.47
2023-04-18T14:40:55.238Z,2.50
2023-04-18T14:45:46.824Z,2.67
2023-04-18T14:50:38.773Z,2.95
2023-04-18T14:55:30.482Z,2.67
2023-04-18T15:00:22.155Z,2.50
2023-04-18T15:05:13.905Z,2.38
2023-04-18T15:10:06.135Z,2.75
2023-04-18T15:14:59.610Z,2.55
2023-04-18T15:19:51.256Z,3.08
2023-04-18T15:24:42.884Z,3.03
2023-04-18T15:29:34.456Z,2.58
2023-04-18T15:34:26.861Z,3.50
2023-04-18T15:39:21.917Z,3.35
2023-04-18T15:44:13.635Z,3.40
2023-04-18T15:49:05.603Z,2.78
2023-04-18T15:53:57.163Z,3.08
2023-04-18T15:58:49.254Z,2.92
2023-04-18T16:03:40.995Z,2.60
2023-04-18T16:08:33.475Z,2.80
2023-04-18T16:13:25.292Z,2.70
2023-04-18T16:18:16.848Z,3.05
2023-04-18T16:23:08.404Z,2.45
2023-04-18T16:27:59.966Z,2.85
2023-04-18T16:32:51.613Z,2.50
2023-04-18T16:37:43.204Z,3.33
2023-04-18T16:42:34.777Z,2.97
2023-04-18T16:47:26.492Z,2.60
2023-04-18T16:52:18.194Z,2.28
2023-04-18T16:57:10.264Z,2.80
2023-04-18T17:02:02.010Z,3.30
2023-04-18T17:06:53.726Z,2.35
2023-04-18T17:11:45.649Z,2.90
2023-04-18T17:16:38.846Z,2.00
2023-04-18T17:21:31.820Z,2.05
2023-04-18T17:26:24.452Z,2.35
2023-04-18T17:31:16.297Z,2.60
2023-04-18T17:36:08.015Z,4.88
2023-04-18T17:41:04.652Z,3.90
2023-04-18T17:45:59.296Z,3.75
2023-04-18T17:50:50.997Z,3.03
2023-04-18T17:55:42.639Z,3.05
2023-04-18T18:00:34.180Z,2.40
2023-04-18T18:05:25.955Z,2.03
2023-04-18T18:10:23.232Z,1.92
2023-04-18T18:15:15.431Z,2.90
2023-04-18T18:20:10.588Z,3.20
2023-04-18T18:25:03.158Z,2.70
2023-04-18T18:29:54.695Z,2.80
2023-04-18T18:34:46.365Z,2.13
2023-04-18T18:39:37.973Z,2.20
2023-04-18T18:44:30.396Z,2.20
2023-04-18T18:49:22.023Z,2.47
2023-04-18T18:54:13.626Z,2.53
2023-04-18T18:59:05.336Z,2.53
2023-04-18T19:03:57.018Z,2.15
2023-04-18T19:08:48.688Z,1.73
2023-04-18T19:13:40.245Z,1.30
2023-04-18T19:18:31.879Z,1.92
2023-04-18T19:23:25.233Z,1.48
2023-04-18T19:28:18.419Z,1.13
2023-04-18T19:33:10.221Z,0.90
2023-04-18T19:38:02.479Z,1.23
2023-04-18T19:42:54.085Z,1.00
2023-04-18T19:47:47.668Z,1.30
2023-04-18T19:52:39.453Z,1.30
2023-04-18T19:57:31.000Z,1.13
2023-04-18T20:02:22.732Z,1.67
2023-04-18T20:07:14.434Z,1.25
2023-04-18T20:12:06.022Z,1.63
2023-04-18T20:16:57.998Z,1.35
2023-04-18T20:21:49.637Z,1.70
2023-04-18T20:26:41.199Z,1.95
2023-04-18T20:31:32.809Z,1.95
2023-04-18T20:36:24.908Z,2.60
2023-04-18T20:41:21.002Z,3.30
2023-04-18T20:46:13.136Z,2.63
2023-04-18T20:51:04.763Z,2.58
2023-04-18T20:55:56.395Z,2.75
2023-04-18T21:00:48.929Z,3.30
2023-04-18T21:05:40.805Z,2.90
2023-04-18T21:10:32.392Z,3.38
2023-04-18T21:15:23.961Z,3.30
2023-04-18T21:20:15.957Z,3.08
2023-04-18T21:25:07.951Z,2.92
2023-04-18T21:29:59.488Z,2.88
2023-04-18T21:34:51.056Z,3.95
2023-04-18T21:39:42.646Z,3.40
2023-04-18T21:44:34.309Z,3.13
2023-04-18T21:49:25.865Z,3.55
2023-04-18T21:54:17.439Z,4.28
2023-04-18T21:59:09.592Z,4.63
2023-04-18T22:04:02.110Z,4.47
2023-04-18T22:08:53.972Z,6.22
2023-04-18T22:13:45.980Z,5.80
2023-04-18T22:18:38.806Z,4.85
2023-04-18T22:23:30.947Z,5.50
2023-04-18T22:28:25.132Z,5.60
2023-04-18T22:33:16.716Z,5.65
2023-04-18T22:38:08.419Z,5.47
2023-04-18T22:42:59.980Z,5.88
2023-04-18T22:47:51.586Z,6.78
2023-04-18T22:52:43.283Z,5.82
2023-04-18T22:57:34.932Z,6.28
2023-04-18T23:02:26.642Z,6.97
2023-04-18T23:07:18.302Z,7.03
2023-04-18T23:12:09.881Z,7.22
2023-04-18T23:17:01.653Z,8.02
2023-04-18T23:21:54.032Z,7.03
2023-04-18T23:26:45.659Z,6.80
2023-04-18T23:31:37.369Z,6.82
2023-04-18T23:36:28.953Z,6.53
2023-04-18T23:41:20.718Z,5.80
2023-04-18T23:46:13.062Z,5.35
2023-04-18T23:51:04.873Z,6.07
2023-04-18T23:55:56.535Z,5.28
